Englewood, CO (80155)

6:15 PM MDT on July 28, 2016 (GMT -0600)
Walnut Hills | | Change Station

Elev 5800 ft 39.59 °N, 104.89 °W | Updated 10 minutes ago

Scattered Clouds
Scattered Clouds
80.8 °F
Feels Like 81 °F
N
4.0
Wind Variable Wind from NE
Gusts 15.0 mph

Today
High -- | Low -- °F
--% Chance of Precip.
Yesterday
High -- | Low -- °F
Precip. -- in
Pressure 29.96 in
Visibility 10.0 miles
Clouds Few 12000 ft
Scattered Clouds 14000 ft
Scattered Clouds 22000 ft
Heat Index 81 °F
Dew Point 58 °F
Humidity 45%
Rainfall in
Snow Depth Not available.
5:55 AM 8:15 PM
Waning Crescent, 27% visible
METAR KAPA 282353Z 07010KT 10SM FEW120 SCT140 SCT220 28/12 A3018 RMK AO2 SLP145 HZ T02780117 10289 20233 56013
Pressure 29.96 in
Visibility 10.0 miles
Clouds Few 12000 ft
Scattered Clouds 14000 ft
Scattered Clouds 22000 ft
Heat Index 81 °F
Dew Point 58 °F
Humidity 45%
Rainfall in
Snow Depth Not available.
5:55 AM 8:15 PM
Waning Crescent, 27% visible
METAR KAPA 282353Z 07010KT 10SM FEW120 SCT140 SCT220 28/12 A3018 RMK AO2 SLP145 HZ T02780117 10289 20233 56013

10-Day Weather Forecast

Almanac

Astronomy

Jul. 28, 2016 Rise Set
Actual Time
Civil Twilight
Nautical Twilight
Astronomical Twilight
Moon
Length of Visible Light
Length of Day
Tomorrow will be .
, % of the Moon is Illuminated

Today's Extremes

State Highs State Lows

Community

WunderPhotos

Upload Photos

1,928,239 photos uploaded!

WunderBlog® & News

Nearby

Air Quality

  Air Quality AQ Index Pollutant
Not available.

Snow Depth

Station Depth Elevation

Earthquake Activity

City Distance Mag. Time & Date
Minimum magnitude displayed is 2.5.

Coastal Water Temperatures

Place Temperature

Stations

Nearby Weather Stations

Station Location Temp. Windchill Dew Point Humidity Wind Precip. Elev Updated Type
                   

Watches & Warnings

There are currently no watches in effect.